sensor_id;sensor_type;location;lat;lon;timestamp;pressure;altitude;pressure_sealevel;temperature;humidity
54900;BME280;40801;41.924;25.562;2023-08-30T00:00:03;98353.16;;;26.10;49.02
54900;BME280;40801;41.924;25.562;2023-08-30T00:02:29;98345.63;;;26.11;49.11
54900;BME280;40801;41.924;25.562;2023-08-30T00:05:01;98347.63;;;26.10;49.15
54900;BME280;40801;41.924;25.562;2023-08-30T00:07:27;98334.34;;;26.05;48.66
54900;BME280;40801;41.924;25.562;2023-08-30T00:09:52;98335.28;;;25.99;49.13
54900;BME280;40801;41.924;25.562;2023-08-30T00:12:18;98342.09;;;25.94;49.65
54900;BME280;40801;41.924;25.562;2023-08-30T00:14:43;98337.09;;;25.89;49.67
54900;BME280;40801;41.924;25.562;2023-08-30T00:17:10;98334.00;;;25.87;49.68
54900;BME280;40801;41.924;25.562;2023-08-30T00:19:35;98337.63;;;25.84;50.01
54900;BME280;40801;41.924;25.562;2023-08-30T00:22:01;98329.88;;;25.79;49.96
54900;BME280;40801;41.924;25.562;2023-08-30T00:24:27;98332.63;;;25.79;50.02
54900;BME280;40801;41.924;25.562;2023-08-30T00:26:53;98326.75;;;25.77;49.99
54900;BME280;40801;41.924;25.562;2023-08-30T00:29:18;98326.00;;;25.76;50.24
54900;BME280;40801;41.924;25.562;2023-08-30T00:31:44;98327.19;;;25.75;50.11
54900;BME280;40801;41.924;25.562;2023-08-30T00:34:09;98326.81;;;25.73;50.42
54900;BME280;40801;41.924;25.562;2023-08-30T00:36:35;98324.94;;;25.70;50.72
54900;BME280;40801;41.924;25.562;2023-08-30T00:39:00;98312.00;;;25.67;50.79
54900;BME280;40801;41.924;25.562;2023-08-30T00:41:25;98317.22;;;25.61;50.82
54900;BME280;40801;41.924;25.562;2023-08-30T00:43:51;98320.09;;;25.58;51.12
54900;BME280;40801;41.924;25.562;2023-08-30T00:46:16;98312.66;;;25.55;51.29
54900;BME280;40801;41.924;25.562;2023-08-30T00:48:43;98312.22;;;25.56;51.46
54900;BME280;40801;41.924;25.562;2023-08-30T00:51:09;98318.72;;;25.50;51.42
54900;BME280;40801;41.924;25.562;2023-08-30T00:53:34;98316.38;;;25.48;51.27
54900;BME280;40801;41.924;25.562;2023-08-30T00:56:00;98310.66;;;25.39;51.55
54900;BME280;40801;41.924;25.562;2023-08-30T00:58:25;98314.63;;;25.38;51.74
54900;BME280;40801;41.924;25.562;2023-08-30T01:00:54;98311.69;;;25.29;51.88
54900;BME280;40801;41.924;25.562;2023-08-30T01:03:20;98314.81;;;25.31;52.13
54900;BME280;40801;41.924;25.562;2023-08-30T01:05:47;98314.81;;;25.31;51.98
54900;BME280;40801;41.924;25.562;2023-08-30T01:08:12;98314.28;;;25.36;51.64
54900;BME280;40801;41.924;25.562;2023-08-30T01:13:21;98324.97;;;25.34;52.12
54900;BME280;40801;41.924;25.562;2023-08-30T01:15:47;98320.16;;;25.38;51.91
54900;BME280;40801;41.924;25.562;2023-08-30T01:18:17;98319.81;;;25.36;51.99
54900;BME280;40801;41.924;25.562;2023-08-30T01:20:44;98326.00;;;25.40;52.26
54900;BME280;40801;41.924;25.562;2023-08-30T01:23:27;98329.19;;;25.39;52.73
54900;BME280;40801;41.924;25.562;2023-08-30T01:26:08;98330.84;;;25.36;52.64
54900;BME280;40801;41.924;25.562;2023-08-30T01:28:35;98332.31;;;25.41;51.61
54900;BME280;40801;41.924;25.562;2023-08-30T01:31:03;98339.13;;;25.36;52.07
54900;BME280;40801;41.924;25.562;2023-08-30T01:33:30;98339.91;;;25.37;51.98
54900;BME280;40801;41.924;25.562;2023-08-30T01:35:59;98337.13;;;25.37;52.09
54900;BME280;40801;41.924;25.562;2023-08-30T01:38:28;98345.41;;;25.37;51.98
54900;BME280;40801;41.924;25.562;2023-08-30T01:40:56;98345.06;;;25.35;51.54
54900;BME280;40801;41.924;25.562;2023-08-30T01:43:24;98343.88;;;25.36;51.38
54900;BME280;40801;41.924;25.562;2023-08-30T01:45:50;98344.97;;;25.22;52.09
54900;BME280;40801;41.924;25.562;2023-08-30T01:48:16;98337.03;;;25.24;52.01
54900;BME280;40801;41.924;25.562;2023-08-30T01:50:44;98343.34;;;25.24;51.81
54900;BME280;40801;41.924;25.562;2023-08-30T01:53:14;98343.41;;;25.21;52.61
54900;BME280;40801;41.924;25.562;2023-08-30T01:55:40;98341.53;;;25.18;51.86
54900;BME280;40801;41.924;25.562;2023-08-30T01:58:07;98345.53;;;25.13;52.04
54900;BME280;40801;41.924;25.562;2023-08-30T02:00:35;98351.13;;;25.10;51.89
54900;BME280;40801;41.924;25.562;2023-08-30T02:03:07;98349.22;;;25.07;52.64
54900;BME280;40801;41.924;25.562;2023-08-30T02:05:34;98340.25;;;25.02;52.09
54900;BME280;40801;41.924;25.562;2023-08-30T02:08:15;98350.53;;;25.02;52.53
54900;BME280;40801;41.924;25.562;2023-08-30T02:10:55;98345.97;;;24.92;52.25
54900;BME280;40801;41.924;25.562;2023-08-30T02:13:25;98344.78;;;24.93;52.35
54900;BME280;40801;41.924;25.562;2023-08-30T02:15:54;98339.00;;;24.87;52.15
54900;BME280;40801;41.924;25.562;2023-08-30T02:18:20;98343.78;;;24.83;52.06
54900;BME280;40801;41.924;25.562;2023-08-30T02:20:46;98339.53;;;24.79;52.31
54900;BME280;40801;41.924;25.562;2023-08-30T02:23:12;98341.53;;;24.78;52.32
54900;BME280;40801;41.924;25.562;2023-08-30T02:25:39;98343.06;;;24.79;52.25
54900;BME280;40801;41.924;25.562;2023-08-30T02:28:05;98339.19;;;24.77;52.43
54900;BME280;40801;41.924;25.562;2023-08-30T02:30:31;98334.09;;;24.75;52.52
54900;BME280;40801;41.924;25.562;2023-08-30T02:32:57;98342.72;;;24.77;52.05
54900;BME280;40801;41.924;25.562;2023-08-30T02:35:22;98346.84;;;24.69;52.35
54900;BME280;40801;41.924;25.562;2023-08-30T02:37:47;98343.22;;;24.72;52.29
54900;BME280;40801;41.924;25.562;2023-08-30T02:40:13;98343.03;;;24.63;52.28
54900;BME280;40801;41.924;25.562;2023-08-30T02:42:38;98347.06;;;24.58;52.71
54900;BME280;40801;41.924;25.562;2023-08-30T02:45:04;98355.31;;;24.58;52.48
54900;BME280;40801;41.924;25.562;2023-08-30T02:47:29;98350.63;;;24.55;52.69
54900;BME280;40801;41.924;25.562;2023-08-30T02:49:55;98353.81;;;24.54;52.52
54900;BME280;40801;41.924;25.562;2023-08-30T02:52:20;98351.50;;;24.52;52.61
54900;BME280;40801;41.924;25.562;2023-08-30T02:54:45;98350.72;;;24.52;52.82
54900;BME280;40801;41.924;25.562;2023-08-30T02:57:11;98347.25;;;24.48;53.20
54900;BME280;40801;41.924;25.562;2023-08-30T02:59:36;98348.09;;;24.45;52.99
54900;BME280;40801;41.924;25.562;2023-08-30T03:02:02;98344.28;;;24.38;53.08
54900;BME280;40801;41.924;25.562;2023-08-30T03:04:27;98349.00;;;24.38;53.37
54900;BME280;40801;41.924;25.562;2023-08-30T03:06:53;98344.78;;;24.33;53.56
54900;BME280;40801;41.924;25.562;2023-08-30T03:09:18;98341.59;;;24.35;53.38
54900;BME280;40801;41.924;25.562;2023-08-30T03:11:44;98344.41;;;24.31;53.78
54900;BME280;40801;41.924;25.562;2023-08-30T03:14:09;98340.53;;;24.29;53.62
54900;BME280;40801;41.924;25.562;2023-08-30T03:16:35;98346.13;;;24.22;54.15
54900;BME280;40801;41.924;25.562;2023-08-30T03:19:02;98346.25;;;24.15;54.57
54900;BME280;40801;41.924;25.562;2023-08-30T03:21:27;98349.19;;;24.04;55.00
54900;BME280;40801;41.924;25.562;2023-08-30T03:23:52;98352.84;;;23.97;55.06
54900;BME280;40801;41.924;25.562;2023-08-30T03:26:18;98354.22;;;24.09;54.41
54900;BME280;40801;41.924;25.562;2023-08-30T03:28:44;98344.91;;;24.03;54.85
54900;BME280;40801;41.924;25.562;2023-08-30T03:31:16;98355.56;;;24.01;55.66
54900;BME280;40801;41.924;25.562;2023-08-30T03:33:42;98352.06;;;23.97;55.28
54900;BME280;40801;41.924;25.562;2023-08-30T03:36:10;98362.72;;;23.95;55.61
54900;BME280;40801;41.924;25.562;2023-08-30T03:38:36;98365.88;;;23.93;55.44
54900;BME280;40801;41.924;25.562;2023-08-30T03:41:03;98373.13;;;23.84;55.88
54900;BME280;40801;41.924;25.562;2023-08-30T03:43:29;98375.00;;;23.90;55.50
54900;BME280;40801;41.924;25.562;2023-08-30T03:45:54;98371.03;;;23.91;55.20
54900;BME280;40801;41.924;25.562;2023-08-30T03:48:20;98381.28;;;23.91;55.74
54900;BME280;40801;41.924;25.562;2023-08-30T03:50:48;98386.00;;;23.90;55.79
54900;BME280;40801;41.924;25.562;2023-08-30T03:53:13;98387.13;;;23.93;55.44
54900;BME280;40801;41.924;25.562;2023-08-30T03:55:39;98393.06;;;23.91;55.81
54900;BME280;40801;41.924;25.562;2023-08-30T03:58:05;98395.41;;;23.93;55.47
54900;BME280;40801;41.924;25.562;2023-08-30T04:00:30;98395.47;;;23.89;55.82
54900;BME280;40801;41.924;25.562;2023-08-30T04:02:56;98404.09;;;23.91;55.84
54900;BME280;40801;41.924;25.562;2023-08-30T04:05:21;98408.88;;;23.87;56.19
54900;BME280;40801;41.924;25.562;2023-08-30T04:07:46;98411.69;;;23.84;56.49
54900;BME280;40801;41.924;25.562;2023-08-30T04:10:12;98406.53;;;23.86;57.12
54900;BME280;40801;41.924;25.562;2023-08-30T04:12:37;98418.03;;;23.81;57.06
54900;BME280;40801;41.924;25.562;2023-08-30T04:15:03;98409.47;;;23.75;57.29
54900;BME280;40801;41.924;25.562;2023-08-30T04:17:28;98415.47;;;23.66;57.71
54900;BME280;40801;41.924;25.562;2023-08-30T04:19:54;98420.25;;;23.62;57.45
54900;BME280;40801;41.924;25.562;2023-08-30T04:22:20;98408.00;;;23.67;57.75
54900;BME280;40801;41.924;25.562;2023-08-30T04:24:48;98415.16;;;23.61;58.59
54900;BME280;40801;41.924;25.562;2023-08-30T04:27:14;98419.13;;;23.60;57.79
54900;BME280;40801;41.924;25.562;2023-08-30T04:29:39;98417.44;;;23.66;57.71
54900;BME280;40801;41.924;25.562;2023-08-30T04:32:05;98420.19;;;23.66;57.47
54900;BME280;40801;41.924;25.562;2023-08-30T04:34:30;98414.75;;;23.62;57.75
54900;BME280;40801;41.924;25.562;2023-08-30T04:36:56;98409.88;;;23.73;57.06
54900;BME280;40801;41.924;25.562;2023-08-30T04:39:22;98420.78;;;23.81;57.33
54900;BME280;40801;41.924;25.562;2023-08-30T04:41:47;98428.56;;;23.86;57.38
54900;BME280;40801;41.924;25.562;2023-08-30T04:44:13;98430.91;;;23.87;57.03
54900;BME280;40801;41.924;25.562;2023-08-30T04:46:38;98434.44;;;23.88;56.81
54900;BME280;40801;41.924;25.562;2023-08-30T04:49:03;98441.50;;;23.89;57.32
54900;BME280;40801;41.924;25.562;2023-08-30T04:51:29;98443.06;;;23.90;57.23
54900;BME280;40801;41.924;25.562;2023-08-30T04:53:54;98437.13;;;23.91;57.46
54900;BME280;40801;41.924;25.562;2023-08-30T04:56:19;98442.59;;;23.95;56.93
54900;BME280;40801;41.924;25.562;2023-08-30T04:58:45;98440.53;;;23.99;56.65
54900;BME280;40801;41.924;25.562;2023-08-30T05:01:10;98444.97;;;23.93;57.32
54900;BME280;40801;41.924;25.562;2023-08-30T05:03:38;98443.72;;;23.97;57.54
54900;BME280;40801;41.924;25.562;2023-08-30T05:06:04;98452.97;;;24.10;56.86
54900;BME280;40801;41.924;25.562;2023-08-30T05:08:29;98447.41;;;24.14;57.15
54900;BME280;40801;41.924;25.562;2023-08-30T05:10:55;98453.84;;;24.31;56.75
54900;BME280;40801;41.924;25.562;2023-08-30T05:13:20;98459.97;;;24.42;56.06
54900;BME280;40801;41.924;25.562;2023-08-30T05:15:45;98463.31;;;24.53;56.05
54900;BME280;40801;41.924;25.562;2023-08-30T05:18:11;98462.63;;;24.69;55.87
54900;BME280;40801;41.924;25.562;2023-08-30T05:20:36;98456.06;;;24.83;55.95
54900;BME280;40801;41.924;25.562;2023-08-30T05:23:02;98449.16;;;24.94;56.00
54900;BME280;40801;41.924;25.562;2023-08-30T05:25:27;98455.91;;;25.13;55.48
54900;BME280;40801;41.924;25.562;2023-08-30T05:27:53;98449.84;;;25.22;55.65
54900;BME280;40801;41.924;25.562;2023-08-30T05:30:18;98450.31;;;25.37;55.60
54900;BME280;40801;41.924;25.562;2023-08-30T05:32:44;98452.50;;;25.45;55.38
54900;BME280;40801;41.924;25.562;2023-08-30T05:35:09;98451.56;;;25.52;54.85
54900;BME280;40801;41.924;25.562;2023-08-30T05:37:35;98450.28;;;25.56;54.87
54900;BME280;40801;41.924;25.562;2023-08-30T05:40:00;98454.88;;;25.63;54.64
54900;BME280;40801;41.924;25.562;2023-08-30T05:42:26;98459.00;;;25.75;54.55
54900;BME280;40801;41.924;25.562;2023-08-30T05:44:53;98456.41;;;25.84;54.25
54900;BME280;40801;41.924;25.562;2023-08-30T05:47:19;98452.94;;;25.96;53.96
54900;BME280;40801;41.924;25.562;2023-08-30T05:49:45;98452.19;;;26.28;52.96
54900;BME280;40801;41.924;25.562;2023-08-30T05:52:11;98457.22;;;26.33;52.81
54900;BME280;40801;41.924;25.562;2023-08-30T05:54:36;98458.66;;;26.54;52.72
54900;BME280;40801;41.924;25.562;2023-08-30T05:57:01;98452.53;;;26.63;52.03
54900;BME280;40801;41.924;25.562;2023-08-30T05:59:27;98454.09;;;26.64;51.91
54900;BME280;40801;41.924;25.562;2023-08-30T06:01:53;98456.91;;;26.76;51.74
54900;BME280;40801;41.924;25.562;2023-08-30T06:04:18;98449.34;;;26.93;51.12
54900;BME280;40801;41.924;25.562;2023-08-30T06:06:43;98452.75;;;27.13;50.66
54900;BME280;40801;41.924;25.562;2023-08-30T06:09:09;98456.00;;;27.25;50.64
54900;BME280;40801;41.924;25.562;2023-08-30T06:11:34;98454.25;;;27.43;50.38
54900;BME280;40801;41.924;25.562;2023-08-30T06:14:00;98455.19;;;27.66;49.63
54900;BME280;40801;41.924;25.562;2023-08-30T06:16:25;98456.09;;;27.88;49.30
54900;BME280;40801;41.924;25.562;2023-08-30T06:18:53;98463.19;;;28.15;48.99
54900;BME280;40801;41.924;25.562;2023-08-30T06:24:03;98464.66;;;28.66;47.14
54900;BME280;40801;41.924;25.562;2023-08-30T06:26:28;98472.34;;;28.84;46.65
54900;BME280;40801;41.924;25.562;2023-08-30T06:28:54;98467.47;;;28.88;46.03
54900;BME280;40801;41.924;25.562;2023-08-30T06:31:19;98473.03;;;29.32;45.59
54900;BME280;40801;41.924;25.562;2023-08-30T06:33:45;98464.91;;;29.38;45.16
54900;BME280;40801;41.924;25.562;2023-08-30T06:36:10;98471.22;;;29.60;44.92
54900;BME280;40801;41.924;25.562;2023-08-30T06:38:37;98465.94;;;29.84;43.97
54900;BME280;40801;41.924;25.562;2023-08-30T06:41:02;98471.00;;;30.07;43.04
54900;BME280;40801;41.924;25.562;2023-08-30T06:43:28;98474.28;;;30.24;42.79
54900;BME280;40801;41.924;25.562;2023-08-30T06:45:53;98482.06;;;30.57;41.88
54900;BME280;40801;41.924;25.562;2023-08-30T06:48:18;98479.28;;;30.57;41.77
54900;BME280;40801;41.924;25.562;2023-08-30T06:50:44;98481.66;;;30.76;41.59
54900;BME280;40801;41.924;25.562;2023-08-30T06:53:09;98485.34;;;30.64;41.81
54900;BME280;40801;41.924;25.562;2023-08-30T06:55:35;98485.06;;;30.90;41.06
54900;BME280;40801;41.924;25.562;2023-08-30T06:58:02;98483.53;;;31.07;40.47
54900;BME280;40801;41.924;25.562;2023-08-30T07:00:28;98479.19;;;31.06;40.22
54900;BME280;40801;41.924;25.562;2023-08-30T07:02:53;98482.31;;;31.17;40.00
54900;BME280;40801;41.924;25.562;2023-08-30T07:05:19;98489.47;;;31.69;39.24
54900;BME280;40801;41.924;25.562;2023-08-30T07:07:44;98492.63;;;32.04;38.72
54900;BME280;40801;41.924;25.562;2023-08-30T07:10:10;98495.75;;;32.40;38.04
54900;BME280;40801;41.924;25.562;2023-08-30T07:12:35;98494.66;;;32.61;37.64
54900;BME280;40801;41.924;25.562;2023-08-30T07:15:02;98493.09;;;33.08;36.77
54900;BME280;40801;41.924;25.562;2023-08-30T07:17:29;98495.31;;;33.18;37.29
54900;BME280;40801;41.924;25.562;2023-08-30T07:19:54;98487.97;;;33.06;36.86
54900;BME280;40801;41.924;25.562;2023-08-30T07:22:19;98482.84;;;33.58;35.86
54900;BME280;40801;41.924;25.562;2023-08-30T07:24:45;98490.44;;;33.72;35.13
54900;BME280;40801;41.924;25.562;2023-08-30T07:27:11;98490.03;;;33.79;34.87
54900;BME280;40801;41.924;25.562;2023-08-30T07:29:38;98488.22;;;33.76;35.17
54900;BME280;40801;41.924;25.562;2023-08-30T07:32:06;98489.97;;;33.74;35.19
54900;BME280;40801;41.924;25.562;2023-08-30T07:34:31;98491.03;;;33.91;34.39
54900;BME280;40801;41.924;25.562;2023-08-30T07:36:57;98491.53;;;33.90;34.58
54900;BME280;40801;41.924;25.562;2023-08-30T07:39:22;98483.56;;;34.17;33.58
54900;BME280;40801;41.924;25.562;2023-08-30T07:41:47;98488.97;;;34.06;33.74
54900;BME280;40801;41.924;25.562;2023-08-30T07:44:13;98481.19;;;34.31;33.66
54900;BME280;40801;41.924;25.562;2023-08-30T07:46:38;98485.72;;;34.63;33.33
54900;BME280;40801;41.924;25.562;2023-08-30T07:49:04;98490.53;;;34.83;32.66
54900;BME280;40801;41.924;25.562;2023-08-30T07:51:29;98485.06;;;35.15;32.05
54900;BME280;40801;41.924;25.562;2023-08-30T07:53:55;98488.94;;;34.97;32.80
54900;BME280;40801;41.924;25.562;2023-08-30T07:56:20;98484.81;;;35.38;31.36
54900;BME280;40801;41.924;25.562;2023-08-30T07:58:45;98480.53;;;35.43;31.30
54900;BME280;40801;41.924;25.562;2023-08-30T08:01:11;98485.63;;;36.02;29.93
54900;BME280;40801;41.924;25.562;2023-08-30T08:03:36;98481.50;;;35.97;30.08
54900;BME280;40801;41.924;25.562;2023-08-30T08:06:01;98488.19;;;36.43;29.46
54900;BME280;40801;41.924;25.562;2023-08-30T08:08:27;98489.44;;;36.42;29.51
54900;BME280;40801;41.924;25.562;2023-08-30T08:10:52;98482.47;;;36.26;29.91
54900;BME280;40801;41.924;25.562;2023-08-30T08:13:18;98488.28;;;36.65;29.65
54900;BME280;40801;41.924;25.562;2023-08-30T08:15:43;98499.91;;;36.84;29.45
54900;BME280;40801;41.924;25.562;2023-08-30T08:18:09;98498.59;;;36.79;29.45
54900;BME280;40801;41.924;25.562;2023-08-30T08:20:35;98495.72;;;37.44;28.15
54900;BME280;40801;41.924;25.562;2023-08-30T08:23:02;98492.94;;;37.67;27.95
54900;BME280;40801;41.924;25.562;2023-08-30T08:25:27;98490.88;;;37.50;28.56
54900;BME280;40801;41.924;25.562;2023-08-30T08:27:53;98500.88;;;37.79;27.78
54900;BME280;40801;41.924;25.562;2023-08-30T08:30:18;98487.56;;;37.74;27.54
54900;BME280;40801;41.924;25.562;2023-08-30T08:32:45;98486.53;;;37.61;27.62
54900;BME280;40801;41.924;25.562;2023-08-30T08:35:11;98485.00;;;37.76;27.95
54900;BME280;40801;41.924;25.562;2023-08-30T08:37:36;98489.88;;;37.98;27.53
54900;BME280;40801;41.924;25.562;2023-08-30T08:40:02;98486.28;;;37.81;27.83
54900;BME280;40801;41.924;25.562;2023-08-30T08:42:34;98486.03;;;37.96;27.77
54900;BME280;40801;41.924;25.562;2023-08-30T08:45:00;98483.19;;;38.24;27.43
54900;BME280;40801;41.924;25.562;2023-08-30T08:47:28;98483.03;;;38.74;26.71
54900;BME280;40801;41.924;25.562;2023-08-30T08:50:13;98486.78;;;38.93;26.64
54900;BME280;40801;41.924;25.562;2023-08-30T08:52:39;98473.38;;;39.16;25.54
54900;BME280;40801;41.924;25.562;2023-08-30T08:55:05;98478.19;;;39.21;25.29
54900;BME280;40801;41.924;25.562;2023-08-30T08:57:31;98469.25;;;38.65;26.09
54900;BME280;40801;41.924;25.562;2023-08-30T08:59:56;98474.34;;;38.78;26.05
54900;BME280;40801;41.924;25.562;2023-08-30T09:02:22;98470.75;;;39.59;24.83
54900;BME280;40801;41.924;25.562;2023-08-30T09:04:48;98470.59;;;39.46;25.11
54900;BME280;40801;41.924;25.562;2023-08-30T09:07:14;98463.13;;;39.49;25.01
54900;BME280;40801;41.924;25.562;2023-08-30T09:09:40;98464.09;;;39.87;24.86
54900;BME280;40801;41.924;25.562;2023-08-30T09:12:06;98458.50;;;40.11;24.95
54900;BME280;40801;41.924;25.562;2023-08-30T09:14:31;98443.06;;;39.58;24.97
54900;BME280;40801;41.924;25.562;2023-08-30T09:16:58;98451.03;;;39.84;24.69
54900;BME280;40801;41.924;25.562;2023-08-30T09:19:25;98447.56;;;40.02;24.46
54900;BME280;40801;41.924;25.562;2023-08-30T09:21:52;98446.56;;;40.00;24.61
54900;BME280;40801;41.924;25.562;2023-08-30T09:24:18;98442.31;;;40.12;24.05
54900;BME280;40801;41.924;25.562;2023-08-30T09:26:48;98444.22;;;40.04;23.72
54900;BME280;40801;41.924;25.562;2023-08-30T09:29:17;98444.31;;;40.17;24.32
54900;BME280;40801;41.924;25.562;2023-08-30T09:31:43;98445.84;;;40.42;23.96
54900;BME280;40801;41.924;25.562;2023-08-30T09:34:09;98442.03;;;40.40;23.92
54900;BME280;40801;41.924;25.562;2023-08-30T09:36:39;98438.22;;;40.75;23.72
54900;BME280;40801;41.924;25.562;2023-08-30T09:39:12;98432.47;;;40.18;24.46
54900;BME280;40801;41.924;25.562;2023-08-30T09:41:46;98422.16;;;40.02;24.32
54900;BME280;40801;41.924;25.562;2023-08-30T09:44:19;98421.63;;;39.44;24.92
54900;BME280;40801;41.924;25.562;2023-08-30T09:46:52;98418.63;;;39.36;25.03
54900;BME280;40801;41.924;25.562;2023-08-30T09:49:21;98420.31;;;39.50;24.20
54900;BME280;40801;41.924;25.562;2023-08-30T09:51:48;98420.22;;;39.86;24.46
54900;BME280;40801;41.924;25.562;2023-08-30T09:54:16;98419.19;;;40.13;24.23
54900;BME280;40801;41.924;25.562;2023-08-30T09:56:43;98410.81;;;40.51;23.19
54900;BME280;40801;41.924;25.562;2023-08-30T09:59:10;98412.75;;;40.80;23.22
54900;BME280;40801;41.924;25.562;2023-08-30T10:01:37;98402.41;;;41.02;22.54
54900;BME280;40801;41.924;25.562;2023-08-30T10:04:04;98404.63;;;41.09;22.74
54900;BME280;40801;41.924;25.562;2023-08-30T10:06:30;98392.34;;;41.20;22.69
54900;BME280;40801;41.924;25.562;2023-08-30T10:08:56;98386.44;;;41.82;22.45
54900;BME280;40801;41.924;25.562;2023-08-30T10:11:23;98388.50;;;42.60;21.37
54900;BME280;40801;41.924;25.562;2023-08-30T10:13:51;98384.69;;;42.45;21.21
54900;BME280;40801;41.924;25.562;2023-08-30T10:16:22;98386.50;;;42.68;21.22
54900;BME280;40801;41.924;25.562;2023-08-30T10:18:54;98379.41;;;43.09;20.68
54900;BME280;40801;41.924;25.562;2023-08-30T10:21:24;98380.38;;;43.12;21.10
54900;BME280;40801;41.924;25.562;2023-08-30T10:23:52;98374.47;;;42.76;20.52
54900;BME280;40801;41.924;25.562;2023-08-30T10:26:23;98369.16;;;42.72;21.03
54900;BME280;40801;41.924;25.562;2023-08-30T10:28:51;98370.34;;;43.11;20.31
54900;BME280;40801;41.924;25.562;2023-08-30T10:31:17;98361.59;;;43.50;20.18
54900;BME280;40801;41.924;25.562;2023-08-30T10:33:55;98363.81;;;43.23;19.88
54900;BME280;40801;41.924;25.562;2023-08-30T10:36:25;98371.00;;;43.04;20.36
54900;BME280;40801;41.924;25.562;2023-08-30T10:38:52;98363.81;;;43.94;18.82
54900;BME280;40801;41.924;25.562;2023-08-30T10:41:24;98361.09;;;43.80;18.64
54900;BME280;40801;41.924;25.562;2023-08-30T10:43:55;98345.97;;;43.36;18.57
54900;BME280;40801;41.924;25.562;2023-08-30T10:46:31;98350.06;;;43.27;19.05
54900;BME280;40801;41.924;25.562;2023-08-30T10:49:11;98342.94;;;44.19;18.21
54900;BME280;40801;41.924;25.562;2023-08-30T10:51:40;98345.13;;;44.42;18.10
54900;BME280;40801;41.924;25.562;2023-08-30T10:54:16;98338.00;;;44.20;18.56
54900;BME280;40801;41.924;25.562;2023-08-30T10:56:48;98334.03;;;44.23;18.31
54900;BME280;40801;41.924;25.562;2023-08-30T10:59:20;98334.47;;;44.27;18.33
54900;BME280;40801;41.924;25.562;2023-08-30T11:01:46;98334.31;;;44.40;18.25
54900;BME280;40801;41.924;25.562;2023-08-30T11:04:14;98334.13;;;44.38;18.25
54900;BME280;40801;41.924;25.562;2023-08-30T11:06:42;98318.97;;;44.43;18.35
54900;BME280;40801;41.924;25.562;2023-08-30T11:09:08;98323.25;;;44.80;17.78
54900;BME280;40801;41.924;25.562;2023-08-30T11:11:36;98328.22;;;44.95;17.39
54900;BME280;40801;41.924;25.562;2023-08-30T11:14:08;98326.25;;;44.67;18.00
54900;BME280;40801;41.924;25.562;2023-08-30T11:16:38;98316.78;;;44.13;18.13
54900;BME280;40801;41.924;25.562;2023-08-30T11:19:04;98305.06;;;44.84;17.54
54900;BME280;40801;41.924;25.562;2023-08-30T11:21:30;98306.38;;;44.83;17.44
54900;BME280;40801;41.924;25.562;2023-08-30T11:23:57;98305.03;;;44.76;18.20
54900;BME280;40801;41.924;25.562;2023-08-30T11:26:23;98292.00;;;45.34;17.16
54900;BME280;40801;41.924;25.562;2023-08-30T11:28:48;98289.72;;;45.32;16.89
54900;BME280;40801;41.924;25.562;2023-08-30T11:31:21;98286.69;;;44.92;17.07
54900;BME280;40801;41.924;25.562;2023-08-30T11:33:55;98275.91;;;44.24;17.77
54900;BME280;40801;41.924;25.562;2023-08-30T11:36:26;98281.16;;;44.12;17.78
54900;BME280;40801;41.924;25.562;2023-08-30T11:38:53;98273.97;;;43.83;18.57
54900;BME280;40801;41.924;25.562;2023-08-30T11:41:20;98266.16;;;43.68;19.36
54900;BME280;40801;41.924;25.562;2023-08-30T11:43:47;98277.97;;;43.87;19.13
54900;BME280;40801;41.924;25.562;2023-08-30T11:46:13;98266.97;;;44.20;18.35
54900;BME280;40801;41.924;25.562;2023-08-30T11:48:40;98261.31;;;44.28;18.99
54900;BME280;40801;41.924;25.562;2023-08-30T11:51:06;98253.06;;;44.68;18.45
54900;BME280;40801;41.924;25.562;2023-08-30T11:53:33;98255.94;;;45.06;17.73
54900;BME280;40801;41.924;25.562;2023-08-30T11:55:58;98247.41;;;45.14;18.02
54900;BME280;40801;41.924;25.562;2023-08-30T11:58:24;98236.59;;;45.27;17.50
54900;BME280;40801;41.924;25.562;2023-08-30T12:00:51;98239.41;;;44.59;17.58
54900;BME280;40801;41.924;25.562;2023-08-30T12:03:19;98238.03;;;43.93;18.44
54900;BME280;40801;41.924;25.562;2023-08-30T12:05:48;98231.44;;;44.57;18.26
54900;BME280;40801;41.924;25.562;2023-08-30T12:08:41;98232.56;;;44.77;17.92
54900;BME280;40801;41.924;25.562;2023-08-30T12:11:19;98233.75;;;45.04;17.48
54900;BME280;40801;41.924;25.562;2023-08-30T12:13:45;98230.91;;;45.12;17.92
54900;BME280;40801;41.924;25.562;2023-08-30T12:16:15;98220.59;;;45.47;17.39
54900;BME280;40801;41.924;25.562;2023-08-30T12:18:41;98218.16;;;45.21;17.71
54900;BME280;40801;41.924;25.562;2023-08-30T12:21:07;98214.53;;;45.51;17.27
54900;BME280;40801;41.924;25.562;2023-08-30T12:23:36;98205.13;;;45.81;16.82
54900;BME280;40801;41.924;25.562;2023-08-30T12:26:07;98205.75;;;46.12;16.51
54900;BME280;40801;41.924;25.562;2023-08-30T12:28:40;98215.41;;;45.76;16.98
54900;BME280;40801;41.924;25.562;2023-08-30T12:31:06;98199.56;;;45.43;16.92
54900;BME280;40801;41.924;25.562;2023-08-30T12:33:33;98200.84;;;45.49;16.85
54900;BME280;40801;41.924;25.562;2023-08-30T12:35:59;98204.41;;;45.65;16.84
54900;BME280;40801;41.924;25.562;2023-08-30T12:38:24;98187.47;;;44.66;17.43
54900;BME280;40801;41.924;25.562;2023-08-30T12:40:53;98196.50;;;44.26;17.55
54900;BME280;40801;41.924;25.562;2023-08-30T12:43:19;98201.25;;;43.15;18.32
54900;BME280;40801;41.924;25.562;2023-08-30T12:45:45;98195.22;;;42.35;19.54
54900;BME280;40801;41.924;25.562;2023-08-30T12:48:12;98190.81;;;42.27;19.20
54900;BME280;40801;41.924;25.562;2023-08-30T12:50:40;98188.00;;;42.89;18.19
54900;BME280;40801;41.924;25.562;2023-08-30T12:53:07;98190.84;;;42.68;18.57